sensor_id;sensor_type;location;lat;lon;timestamp;temperature;humidity
52799;DHT22;38667;42.872;74.622;2022-08-04T00:01:34;21.90;68.30
52799;DHT22;38667;42.872;74.622;2022-08-04T00:04:04;21.80;69.70
52799;DHT22;38667;42.872;74.622;2022-08-04T00:06:47;21.80;69.70
52799;DHT22;38667;42.872;74.622;2022-08-04T00:09:27;21.50;67.90
52799;DHT22;38667;42.872;74.622;2022-08-04T00:11:57;21.20;67.70
52799;DHT22;38667;42.872;74.622;2022-08-04T00:14:28;21.10;68.90
52799;DHT22;38667;42.872;74.622;2022-08-04T00:16:55;21.20;68.40
52799;DHT22;38667;42.872;74.622;2022-08-04T00:19:28;21.10;68.00
52799;DHT22;38667;42.872;74.622;2022-08-04T00:21:59;20.90;69.00
52799;DHT22;38667;42.872;74.622;2022-08-04T00:24:30;21.10;68.40
52799;DHT22;38667;42.872;74.622;2022-08-04T00:26:57;21.20;68.30
52799;DHT22;38667;42.872;74.622;2022-08-04T00:29:24;21.30;68.00
52799;DHT22;38667;42.872;74.622;2022-08-04T00:31:52;21.40;68.70
52799;DHT22;38667;42.872;74.622;2022-08-04T00:34:20;21.40;68.80
52799;DHT22;38667;42.872;74.622;2022-08-04T00:36:49;21.50;69.50
52799;DHT22;38667;42.872;74.622;2022-08-04T00:39:16;21.40;69.30
52799;DHT22;38667;42.872;74.622;2022-08-04T00:41:58;21.40;70.80
52799;DHT22;38667;42.872;74.622;2022-08-04T00:44:33;21.20;71.70
52799;DHT22;38667;42.872;74.622;2022-08-04T00:47:24;21.10;69.30
52799;DHT22;38667;42.872;74.622;2022-08-04T00:50:08;20.90;69.70
52799;DHT22;38667;42.872;74.622;2022-08-04T00:56:03;20.70;72.20
52799;DHT22;38667;42.872;74.622;2022-08-04T00:58:42;20.60;72.50
52799;DHT22;38667;42.872;74.622;2022-08-04T01:01:18;20.60;72.10
52799;DHT22;38667;42.872;74.622;2022-08-04T01:03:50;20.60;71.70
52799;DHT22;38667;42.872;74.622;2022-08-04T01:06:28;20.60;72.30
52799;DHT22;38667;42.872;74.622;2022-08-04T01:09:09;20.60;73.60
52799;DHT22;38667;42.872;74.622;2022-08-04T01:11:55;20.50;76.30
52799;DHT22;38667;42.872;74.622;2022-08-04T01:14:46;20.40;76.90
52799;DHT22;38667;42.872;74.622;2022-08-04T01:17:20;20.40;78.50
52799;DHT22;38667;42.872;74.622;2022-08-04T01:20:04;20.70;78.40
52799;DHT22;38667;42.872;74.622;2022-08-04T01:26:07;20.80;75.20
52799;DHT22;38667;42.872;74.622;2022-08-04T01:28:58;20.70;77.30
52799;DHT22;38667;42.872;74.622;2022-08-04T01:31:34;20.70;76.90
52799;DHT22;38667;42.872;74.622;2022-08-04T01:34:05;20.80;76.60
52799;DHT22;38667;42.872;74.622;2022-08-04T01:36:34;20.90;75.10
52799;DHT22;38667;42.872;74.622;2022-08-04T01:39:01;21.10;75.70
52799;DHT22;38667;42.872;74.622;2022-08-04T01:41:27;21.10;75.90
52799;DHT22;38667;42.872;74.622;2022-08-04T01:43:55;21.10;76.00
52799;DHT22;38667;42.872;74.622;2022-08-04T01:46:25;21.10;76.20
52799;DHT22;38667;42.872;74.622;2022-08-04T01:48:53;21.10;75.40
52799;DHT22;38667;42.872;74.622;2022-08-04T01:51:22;21.10;74.90
52799;DHT22;38667;42.872;74.622;2022-08-04T01:53:49;21.10;75.00
52799;DHT22;38667;42.872;74.622;2022-08-04T01:56:16;20.90;74.90
52799;DHT22;38667;42.872;74.622;2022-08-04T01:58:44;20.80;77.20
52799;DHT22;38667;42.872;74.622;2022-08-04T02:01:11;20.50;76.30
52799;DHT22;38667;42.872;74.622;2022-08-04T02:03:42;20.50;75.70
52799;DHT22;38667;42.872;74.622;2022-08-04T02:06:17;20.40;76.30
52799;DHT22;38667;42.872;74.622;2022-08-04T02:08:50;20.30;76.80
52799;DHT22;38667;42.872;74.622;2022-08-04T02:11:20;20.30;75.70
52799;DHT22;38667;42.872;74.622;2022-08-04T02:13:53;20.30;76.00
52799;DHT22;38667;42.872;74.622;2022-08-04T02:16:31;20.30;75.30
52799;DHT22;38667;42.872;74.622;2022-08-04T02:19:04;20.30;77.20
52799;DHT22;38667;42.872;74.622;2022-08-04T02:21:33;20.20;78.20
52799;DHT22;38667;42.872;74.622;2022-08-04T02:24:05;20.30;76.80
52799;DHT22;38667;42.872;74.622;2022-08-04T02:26:33;20.60;74.20
52799;DHT22;38667;42.872;74.622;2022-08-04T02:29:06;20.70;71.90
52799;DHT22;38667;42.872;74.622;2022-08-04T02:31:38;20.80;72.30
52799;DHT22;38667;42.872;74.622;2022-08-04T02:34:08;20.90;73.10
52799;DHT22;38667;42.872;74.622;2022-08-04T02:36:38;21.10;71.60
52799;DHT22;38667;42.872;74.622;2022-08-04T02:39:06;21.20;70.30
52799;DHT22;38667;42.872;74.622;2022-08-04T02:41:33;21.20;69.70
52799;DHT22;38667;42.872;74.622;2022-08-04T02:44:02;21.30;68.80
52799;DHT22;38667;42.872;74.622;2022-08-04T02:46:29;21.20;68.70
52799;DHT22;38667;42.872;74.622;2022-08-04T02:48:56;21.20;69.70
52799;DHT22;38667;42.872;74.622;2022-08-04T02:51:27;21.30;68.60
52799;DHT22;38667;42.872;74.622;2022-08-04T02:53:55;21.40;68.50
52799;DHT22;38667;42.872;74.622;2022-08-04T02:56:23;21.50;68.70
52799;DHT22;38667;42.872;74.622;2022-08-04T02:58:52;21.60;68.40
52799;DHT22;38667;42.872;74.622;2022-08-04T03:01:20;21.50;68.40
52799;DHT22;38667;42.872;74.622;2022-08-04T03:03:52;21.30;68.90
52799;DHT22;38667;42.872;74.622;2022-08-04T03:06:53;21.20;69.80
52799;DHT22;38667;42.872;74.622;2022-08-04T03:13:00;21.10;72.40
52799;DHT22;38667;42.872;74.622;2022-08-04T03:15:57;21.00;73.20
52799;DHT22;38667;42.872;74.622;2022-08-04T03:22:00;21.10;73.20
52799;DHT22;38667;42.872;74.622;2022-08-04T03:28:11;21.30;72.60
52799;DHT22;38667;42.872;74.622;2022-08-04T03:30:56;21.30;70.80
52799;DHT22;38667;42.872;74.622;2022-08-04T03:33:48;21.40;71.50
52799;DHT22;38667;42.872;74.622;2022-08-04T03:36:51;21.50;71.80
52799;DHT22;38667;42.872;74.622;2022-08-04T03:39:37;21.50;72.50
52799;DHT22;38667;42.872;74.622;2022-08-04T03:42:32;21.50;71.90
52799;DHT22;38667;42.872;74.622;2022-08-04T03:51:15;22.00;69.10
52799;DHT22;38667;42.872;74.622;2022-08-04T03:53:51;22.00;68.30
52799;DHT22;38667;42.872;74.622;2022-08-04T03:56:50;22.10;68.70
52799;DHT22;38667;42.872;74.622;2022-08-04T03:59:48;22.40;68.60
52799;DHT22;38667;42.872;74.622;2022-08-04T04:05:50;22.60;68.10
52799;DHT22;38667;42.872;74.622;2022-08-04T04:08:52;22.60;68.20
52799;DHT22;38667;42.872;74.622;2022-08-04T04:11:56;22.60;68.20
52799;DHT22;38667;42.872;74.622;2022-08-04T04:14:47;22.70;67.80
52799;DHT22;38667;42.872;74.622;2022-08-04T04:23:54;22.90;64.80
52799;DHT22;38667;42.872;74.622;2022-08-04T04:26:37;23.00;64.90
52799;DHT22;38667;42.872;74.622;2022-08-04T04:32:07;23.40;63.40
52799;DHT22;38667;42.872;74.622;2022-08-04T04:34:42;23.60;62.30
52799;DHT22;38667;42.872;74.622;2022-08-04T04:37:20;23.80;61.90
52799;DHT22;38667;42.872;74.622;2022-08-04T04:39:58;24.00;61.00
52799;DHT22;38667;42.872;74.622;2022-08-04T04:42:50;24.20;60.10
52799;DHT22;38667;42.872;74.622;2022-08-04T04:45:26;24.40;59.30
52799;DHT22;38667;42.872;74.622;2022-08-04T04:47:59;24.60;58.90
52799;DHT22;38667;42.872;74.622;2022-08-04T04:50:37;24.90;57.10
52799;DHT22;38667;42.872;74.622;2022-08-04T04:53:16;25.20;56.50
52799;DHT22;38667;42.872;74.622;2022-08-04T04:55:52;25.30;57.80
52799;DHT22;38667;42.872;74.622;2022-08-04T04:58:21;25.30;57.50
52799;DHT22;38667;42.872;74.622;2022-08-04T05:01:15;25.30;56.30
52799;DHT22;38667;42.872;74.622;2022-08-04T05:04:00;25.40;57.00
52799;DHT22;38667;42.872;74.622;2022-08-04T05:06:39;25.40;56.60
52799;DHT22;38667;42.872;74.622;2022-08-04T05:09:26;25.40;57.00
52799;DHT22;38667;42.872;74.622;2022-08-04T05:12:16;25.50;57.30
52799;DHT22;38667;42.872;74.622;2022-08-04T05:14:46;25.60;56.60
52799;DHT22;38667;42.872;74.622;2022-08-04T05:17:17;25.70;56.40
52799;DHT22;38667;42.872;74.622;2022-08-04T05:19:53;25.80;57.30
52799;DHT22;38667;42.872;74.622;2022-08-04T05:22:23;25.80;56.50
52799;DHT22;38667;42.872;74.622;2022-08-04T05:24:57;25.90;55.50
52799;DHT22;38667;42.872;74.622;2022-08-04T05:27:29;26.00;56.10
52799;DHT22;38667;42.872;74.622;2022-08-04T05:29:59;26.10;55.50
52799;DHT22;38667;42.872;74.622;2022-08-04T05:32:30;26.10;54.10
52799;DHT22;38667;42.872;74.622;2022-08-04T05:35:02;26.20;53.60
52799;DHT22;38667;42.872;74.622;2022-08-04T05:37:30;26.30;53.60
52799;DHT22;38667;42.872;74.622;2022-08-04T05:40:03;26.40;52.70
52799;DHT22;38667;42.872;74.622;2022-08-04T05:42:30;26.50;51.40
52799;DHT22;38667;42.872;74.622;2022-08-04T05:44:57;26.50;49.50
52799;DHT22;38667;42.872;74.622;2022-08-04T05:47:24;26.50;49.10
52799;DHT22;38667;42.872;74.622;2022-08-04T05:49:52;26.60;48.00
52799;DHT22;38667;42.872;74.622;2022-08-04T05:52:19;26.80;47.40
52799;DHT22;38667;42.872;74.622;2022-08-04T05:54:47;26.90;46.40
52799;DHT22;38667;42.872;74.622;2022-08-04T05:57:16;26.80;45.80
52799;DHT22;38667;42.872;74.622;2022-08-04T05:59:44;26.70;45.50
52799;DHT22;38667;42.872;74.622;2022-08-04T06:02:12;26.90;44.70
52799;DHT22;38667;42.872;74.622;2022-08-04T06:04:41;26.80;44.80
52799;DHT22;38667;42.872;74.622;2022-08-04T06:07:08;26.70;45.40
52799;DHT22;38667;42.872;74.622;2022-08-04T06:09:34;26.40;45.80
52799;DHT22;38667;42.872;74.622;2022-08-04T06:12:03;26.20;46.50
52799;DHT22;38667;42.872;74.622;2022-08-04T06:14:37;26.10;47.30
52799;DHT22;38667;42.872;74.622;2022-08-04T06:17:06;25.90;47.60
52799;DHT22;38667;42.872;74.622;2022-08-04T06:19:34;25.90;48.30
52799;DHT22;38667;42.872;74.622;2022-08-04T06:22:03;25.80;49.30
52799;DHT22;38667;42.872;74.622;2022-08-04T06:24:31;25.70;48.80
52799;DHT22;38667;42.872;74.622;2022-08-04T06:27:00;25.70;48.70
52799;DHT22;38667;42.872;74.622;2022-08-04T06:29:29;25.70;49.70
52799;DHT22;38667;42.872;74.622;2022-08-04T06:32:00;25.70;50.20
52799;DHT22;38667;42.872;74.622;2022-08-04T06:34:27;25.60;50.60
52799;DHT22;38667;42.872;74.622;2022-08-04T06:36:54;25.60;51.10
52799;DHT22;38667;42.872;74.622;2022-08-04T06:39:22;25.50;52.00
52799;DHT22;38667;42.872;74.622;2022-08-04T06:41:49;25.50;49.60
52799;DHT22;38667;42.872;74.622;2022-08-04T06:44:19;25.40;51.00
52799;DHT22;38667;42.872;74.622;2022-08-04T06:46:46;25.40;51.10
52799;DHT22;38667;42.872;74.622;2022-08-04T06:49:17;25.40;51.90
52799;DHT22;38667;42.872;74.622;2022-08-04T06:51:44;25.40;51.60
52799;DHT22;38667;42.872;74.622;2022-08-04T06:54:12;25.60;52.20
52799;DHT22;38667;42.872;74.622;2022-08-04T06:56:38;26.00;48.80
52799;DHT22;38667;42.872;74.622;2022-08-04T06:59:05;26.60;47.60
52799;DHT22;38667;42.872;74.622;2022-08-04T07:01:35;27.10;46.80
52799;DHT22;38667;42.872;74.622;2022-08-04T07:04:02;27.60;46.90
52799;DHT22;38667;42.872;74.622;2022-08-04T07:06:30;28.00;45.50
52799;DHT22;38667;42.872;74.622;2022-08-04T07:08:57;28.10;44.20
52799;DHT22;38667;42.872;74.622;2022-08-04T07:11:23;28.30;45.00
52799;DHT22;38667;42.872;74.622;2022-08-04T07:13:50;28.40;41.70
52799;DHT22;38667;42.872;74.622;2022-08-04T07:16:22;28.30;42.20
52799;DHT22;38667;42.872;74.622;2022-08-04T07:18:49;28.20;41.20
52799;DHT22;38667;42.872;74.622;2022-08-04T07:21:19;28.20;41.10
52799;DHT22;38667;42.872;74.622;2022-08-04T07:23:48;28.30;40.60
52799;DHT22;38667;42.872;74.622;2022-08-04T07:26:14;28.50;40.10
52799;DHT22;38667;42.872;74.622;2022-08-04T07:28:41;29.00;39.70
52799;DHT22;38667;42.872;74.622;2022-08-04T07:31:12;29.60;38.30
52799;DHT22;38667;42.872;74.622;2022-08-04T07:33:41;29.80;37.60
52799;DHT22;38667;42.872;74.622;2022-08-04T07:36:07;29.80;37.50
52799;DHT22;38667;42.872;74.622;2022-08-04T07:38:34;29.80;37.00
52799;DHT22;38667;42.872;74.622;2022-08-04T07:41:02;29.80;36.70
52799;DHT22;38667;42.872;74.622;2022-08-04T07:43:29;29.70;37.30
52799;DHT22;38667;42.872;74.622;2022-08-04T07:45:56;29.40;38.10
52799;DHT22;38667;42.872;74.622;2022-08-04T07:48:22;29.20;38.70
52799;DHT22;38667;42.872;74.622;2022-08-04T07:50:49;28.90;37.80
52799;DHT22;38667;42.872;74.622;2022-08-04T07:53:17;28.70;40.00
52799;DHT22;38667;42.872;74.622;2022-08-04T07:55:44;28.40;40.30
52799;DHT22;38667;42.872;74.622;2022-08-04T07:58:12;28.10;42.00
52799;DHT22;38667;42.872;74.622;2022-08-04T08:00:39;28.00;42.10
52799;DHT22;38667;42.872;74.622;2022-08-04T08:03:06;28.00;42.90
52799;DHT22;38667;42.872;74.622;2022-08-04T08:05:33;28.00;40.90
52799;DHT22;38667;42.872;74.622;2022-08-04T08:07:59;28.10;40.40
52799;DHT22;38667;42.872;74.622;2022-08-04T08:10:25;28.00;39.70
52799;DHT22;38667;42.872;74.622;2022-08-04T08:12:52;27.90;39.90
52799;DHT22;38667;42.872;74.622;2022-08-04T08:15:21;27.80;39.20
52799;DHT22;38667;42.872;74.622;2022-08-04T08:17:47;27.80;39.00
52799;DHT22;38667;42.872;74.622;2022-08-04T08:20:13;27.60;38.90
52799;DHT22;38667;42.872;74.622;2022-08-04T08:22:40;27.60;39.50
52799;DHT22;38667;42.872;74.622;2022-08-04T08:25:07;27.40;40.50
52799;DHT22;38667;42.872;74.622;2022-08-04T08:27:34;27.40;39.80
52799;DHT22;38667;42.872;74.622;2022-08-04T08:30:02;27.40;39.80
52799;DHT22;38667;42.872;74.622;2022-08-04T08:32:30;27.40;40.90
52799;DHT22;38667;42.872;74.622;2022-08-04T08:34:56;27.40;42.60
52799;DHT22;38667;42.872;74.622;2022-08-04T08:37:28;27.40;43.10
52799;DHT22;38667;42.872;74.622;2022-08-04T08:40:01;27.30;43.60
52799;DHT22;38667;42.872;74.622;2022-08-04T08:42:51;27.20;44.00
52799;DHT22;38667;42.872;74.622;2022-08-04T08:45:47;27.10;44.00
52799;DHT22;38667;42.872;74.622;2022-08-04T08:48:38;27.10;44.40
52799;DHT22;38667;42.872;74.622;2022-08-04T08:56:58;26.90;43.00
52799;DHT22;38667;42.872;74.622;2022-08-04T08:59:36;26.90;41.80
52799;DHT22;38667;42.872;74.622;2022-08-04T09:02:31;27.00;41.90
52799;DHT22;38667;42.872;74.622;2022-08-04T09:05:08;27.00;41.80
52799;DHT22;38667;42.872;74.622;2022-08-04T09:08:05;27.00;42.20
52799;DHT22;38667;42.872;74.622;2022-08-04T09:10:47;27.00;42.00
52799;DHT22;38667;42.872;74.622;2022-08-04T09:13:20;27.00;41.30
52799;DHT22;38667;42.872;74.622;2022-08-04T09:15:56;27.10;41.60
52799;DHT22;38667;42.872;74.622;2022-08-04T09:18:30;27.50;36.80
52799;DHT22;38667;42.872;74.622;2022-08-04T09:21:05;27.80;34.80
52799;DHT22;38667;42.872;74.622;2022-08-04T09:23:42;28.10;35.10
52799;DHT22;38667;42.872;74.622;2022-08-04T09:26:18;28.40;34.90
52799;DHT22;38667;42.872;74.622;2022-08-04T09:28:50;28.60;36.30
52799;DHT22;38667;42.872;74.622;2022-08-04T09:31:21;28.50;39.80
52799;DHT22;38667;42.872;74.622;2022-08-04T09:33:58;28.30;40.40
52799;DHT22;38667;42.872;74.622;2022-08-04T09:36:35;28.50;40.10
52799;DHT22;38667;42.872;74.622;2022-08-04T09:39:09;28.80;38.40
52799;DHT22;38667;42.872;74.622;2022-08-04T09:41:43;29.00;39.00
52799;DHT22;38667;42.872;74.622;2022-08-04T09:44:18;30.00;36.10
52799;DHT22;38667;42.872;74.622;2022-08-04T09:46:49;31.10;35.70
52799;DHT22;38667;42.872;74.622;2022-08-04T09:49:20;32.50;33.70
52799;DHT22;38667;42.872;74.622;2022-08-04T09:52:00;33.20;33.50
52799;DHT22;38667;42.872;74.622;2022-08-04T09:54:37;34.20;31.90
52799;DHT22;38667;42.872;74.622;2022-08-04T09:57:12;34.50;30.80
52799;DHT22;38667;42.872;74.622;2022-08-04T09:59:47;35.30;30.60
52799;DHT22;38667;42.872;74.622;2022-08-04T10:02:19;34.90;30.40
52799;DHT22;38667;42.872;74.622;2022-08-04T10:04:47;33.00;33.10
52799;DHT22;38667;42.872;74.622;2022-08-04T10:07:41;31.50;34.60
52799;DHT22;38667;42.872;74.622;2022-08-04T10:10:20;30.60;35.90
52799;DHT22;38667;42.872;74.622;2022-08-04T10:13:17;29.80;36.90
52799;DHT22;38667;42.872;74.622;2022-08-04T10:15:55;29.30;37.50
52799;DHT22;38667;42.872;74.622;2022-08-04T10:18:34;28.90;38.40
52799;DHT22;38667;42.872;74.622;2022-08-04T10:21:10;28.70;38.20
52799;DHT22;38667;42.872;74.622;2022-08-04T10:23:46;28.60;38.20
52799;DHT22;38667;42.872;74.622;2022-08-04T10:26:24;28.60;38.40
52799;DHT22;38667;42.872;74.622;2022-08-04T10:28:55;28.60;38.60
52799;DHT22;38667;42.872;74.622;2022-08-04T10:31:27;28.50;38.10
52799;DHT22;38667;42.872;74.622;2022-08-04T10:33:59;28.50;38.10
52799;DHT22;38667;42.872;74.622;2022-08-04T10:36:29;28.50;38.80
52799;DHT22;38667;42.872;74.622;2022-08-04T10:39:02;28.60;37.40
52799;DHT22;38667;42.872;74.622;2022-08-04T10:41:36;28.70;37.80
52799;DHT22;38667;42.872;74.622;2022-08-04T10:44:17;28.70;39.10
52799;DHT22;38667;42.872;74.622;2022-08-04T10:46:49;28.80;38.50
52799;DHT22;38667;42.872;74.622;2022-08-04T10:49:21;28.80;37.90
52799;DHT22;38667;42.872;74.622;2022-08-04T10:51:52;28.70;37.10
52799;DHT22;38667;42.872;74.622;2022-08-04T10:54:26;28.60;37.20
52799;DHT22;38667;42.872;74.622;2022-08-04T10:56:59;28.50;37.50
52799;DHT22;38667;42.872;74.622;2022-08-04T10:59:38;28.50;37.90
52799;DHT22;38667;42.872;74.622;2022-08-04T11:02:16;28.40;37.90
52799;DHT22;38667;42.872;74.622;2022-08-04T11:04:48;28.40;38.40
52799;DHT22;38667;42.872;74.622;2022-08-04T11:07:16;28.20;37.80
52799;DHT22;38667;42.872;74.622;2022-08-04T11:09:45;28.10;38.30
52799;DHT22;38667;42.872;74.622;2022-08-04T11:12:16;28.00;38.80
52799;DHT22;38667;42.872;74.622;2022-08-04T11:14:54;28.00;38.60
52799;DHT22;38667;42.872;74.622;2022-08-04T11:17:25;27.90;38.70
52799;DHT22;38667;42.872;74.622;2022-08-04T11:19:58;28.00;37.60
52799;DHT22;38667;42.872;74.622;2022-08-04T11:22:27;28.00;37.90
52799;DHT22;38667;42.872;74.622;2022-08-04T11:25:07;28.10;38.40
52799;DHT22;38667;42.872;74.622;2022-08-04T11:27:42;28.10;37.80
52799;DHT22;38667;42.872;74.622;2022-08-04T11:30:13;28.10;37.80
52799;DHT22;38667;42.872;74.622;2022-08-04T11:32:49;28.00;38.80
52799;DHT22;38667;42.872;74.622;2022-08-04T11:35:34;28.10;39.80
52799;DHT22;38667;42.872;74.622;2022-08-04T11:38:08;28.00;37.40
52799;DHT22;38667;42.872;74.622;2022-08-04T11:40:42;28.10;38.90
52799;DHT22;38667;42.872;74.622;2022-08-04T11:43:12;28.10;39.00
52799;DHT22;38667;42.872;74.622;2022-08-04T11:45:46;27.90;40.70
52799;DHT22;38667;42.872;74.622;2022-08-04T11:48:26;27.80;39.80
52799;DHT22;38667;42.872;74.622;2022-08-04T11:50:54;27.70;39.60
52799;DHT22;38667;42.872;74.622;2022-08-04T11:53:23;27.70;40.30
52799;DHT22;38667;42.872;74.622;2022-08-04T11:55:53;27.60;39.70
52799;DHT22;38667;42.872;74.622;2022-08-04T11:58:23;27.70;37.60
52799;DHT22;38667;42.872;74.622;2022-08-04T12:00:56;27.90;38.60
52799;DHT22;38667;42.872;74.622;2022-08-04T12:03:33;28.00;38.30
52799;DHT22;38667;42.872;74.622;2022-08-04T12:06:13;28.00;37.50
52799;DHT22;38667;42.872;74.622;2022-08-04T12:08:54;28.10;38.00
52799;DHT22;38667;42.872;74.622;2022-08-04T12:11:38;27.90;39.10
52799;DHT22;38667;42.872;74.622;2022-08-04T12:14:16;27.80;39.20
52799;DHT22;38667;42.872;74.622;2022-08-04T12:16:51;27.70;39.60
52799;DHT22;38667;42.872;74.622;2022-08-04T12:19:25;27.70;37.30
52799;DHT22;38667;42.872;74.622;2022-08-04T12:21:54;27.70;38.80
52799;DHT22;38667;42.872;74.622;2022-08-04T12:24:26;27.70;37.70
52799;DHT22;38667;42.872;74.622;2022-08-04T12:26:58;27.80;36.90
52799;DHT22;38667;42.872;74.622;2022-08-04T12:29:31;27.80;36.00
52799;DHT22;38667;42.872;74.622;2022-08-04T12:32:03;27.80;36.40
52799;DHT22;38667;42.872;74.622;2022-08-04T12:34:34;27.60;37.50
52799;DHT22;38667;42.872;74.622;2022-08-04T12:37:04;27.40;39.40
52799;DHT22;38667;42.872;74.622;2022-08-04T12:39:32;27.30;39.70
52799;DHT22;38667;42.872;74.622;2022-08-04T12:42:10;27.20;39.60
52799;DHT22;38667;42.872;74.622;2022-08-04T12:44:40;27.20;37.80
52799;DHT22;38667;42.872;74.622;2022-08-04T12:47:08;27.30;39.00
52799;DHT22;38667;42.872;74.622;2022-08-04T12:49:37;27.30;38.60
52799;DHT22;38667;42.872;74.622;2022-08-04T12:52:05;27.20;39.30
52799;DHT22;38667;42.872;74.622;2022-08-04T12:54:32;27.20;38.60
52799;DHT22;38667;42.872;74.622;2022-08-04T12:57:03;27.30;38.50
52799;DHT22;38667;42.872;74.622;2022-08-04T12:59:29;27.30;38.70
52799;DHT22;38667;42.872;74.622;2022-08-04T13:02:02;27.20;39.20
52799;DHT22;38667;42.872;74.622;2022-08-04T13:04:29;27.10;39.20
52799;DHT22;38667;42.872;74.622;2022-08-04T13:06:59;27.10;40.10
52799;DHT22;38667;42.872;74.622;2022-08-04T13:09:32;27.00;40.40
52799;DHT22;38667;42.872;74.622;2022-08-04T13:12:02;26.90;40.20
52799;DHT22;38667;42.872;74.622;2022-08-04T13:14:34;26.80;40.90
52799;DHT22;38667;42.872;74.622;2022-08-04T13:17:01;26.70;41.40
52799;DHT22;38667;42.872;74.622;2022-08-04T13:19:27;26.60;43.00
52799;DHT22;38667;42.872;74.622;2022-08-04T13:21:54;26.50;42.80
52799;DHT22;38667;42.872;74.622;2022-08-04T13:24:22;26.50;41.90
52799;DHT22;38667;42.872;74.622;2022-08-04T13:26:50;26.40;42.60
52799;DHT22;38667;42.872;74.622;2022-08-04T13:29:21;26.40;42.00
52799;DHT22;38667;42.872;74.622;2022-08-04T13:31:49;26.40;42.00
52799;DHT22;38667;42.872;74.622;2022-08-04T13:34:17;26.40;42.50
52799;DHT22;38667;42.872;74.622;2022-08-04T13:36:44;26.40;43.20
52799;DHT22;38667;42.872;74.622;2022-08-04T13:39:16;26.30;43.20
52799;DHT22;38667;42.872;74.622;2022-08-04T13:41:44;26.30;42.80
52799;DHT22;38667;42.872;74.622;2022-08-04T13:44:11;26.20;43.00
52799;DHT22;38667;42.872;74.622;2022-08-04T13:46:49;26.20;43.50
52799;DHT22;38667;42.872;74.622;2022-08-04T13:49:18;26.20;43.50
52799;DHT22;38667;42.872;74.622;2022-08-04T13:51:50;26.20;43.30
52799;DHT22;38667;42.872;74.622;2022-08-04T13:54:18;26.20;43.80
52799;DHT22;38667;42.872;74.622;2022-08-04T13:56:46;26.10;44.00
52799;DHT22;38667;42.872;74.622;2022-08-04T13:59:16;26.10;43.50
52799;DHT22;38667;42.872;74.622;2022-08-04T14:01:46;26.20;43.20
52799;DHT22;38667;42.872;74.622;2022-08-04T14:04:21;26.20;43.90
52799;DHT22;38667;42.872;74.622;2022-08-04T14:06:50;26.10;43.30
52799;DHT22;38667;42.872;74.622;2022-08-04T14:09:19;26.10;43.50
52799;DHT22;38667;42.872;74.622;2022-08-04T14:11:48;26.00;43.50
52799;DHT22;38667;42.872;74.622;2022-08-04T14:14:20;26.00;44.70
52799;DHT22;38667;42.872;74.622;2022-08-04T14:17:03;25.90;43.10
52799;DHT22;38667;42.872;74.622;2022-08-04T14:19:48;26.00;43.00
52799;DHT22;38667;42.872;74.622;2022-08-04T14:22:27;26.00;44.40
52799;DHT22;38667;42.872;74.622;2022-08-04T14:24:55;25.90;43.30
52799;DHT22;38667;42.872;74.622;2022-08-04T14:27:22;25.90;43.30
52799;DHT22;38667;42.872;74.622;2022-08-04T14:29:48;25.90;43.40
52799;DHT22;38667;42.872;74.622;2022-08-04T14:32:16;25.90;43.80
52799;DHT22;38667;42.872;74.622;2022-08-04T14:34:43;25.90;44.30
52799;DHT22;38667;42.872;74.622;2022-08-04T14:37:11;25.80;44.50
52799;DHT22;38667;42.872;74.622;2022-08-04T14:39:39;25.70;45.80
52799;DHT22;38667;42.872;74.622;2022-08-04T14:42:06;25.60;45.40
52799;DHT22;38667;42.872;74.622;2022-08-04T14:44:52;25.60;45.70
52799;DHT22;38667;42.872;74.622;2022-08-04T14:47:37;25.50;44.80
52799;DHT22;38667;42.872;74.622;2022-08-04T14:50:04;25.40;44.10
52799;DHT22;38667;42.872;74.622;2022-08-04T14:52:31;25.30;47.00
52799;DHT22;38667;42.872;74.622;2022-08-04T14:54:57;25.30;47.30
52799;DHT22;38667;42.872;74.622;2022-08-04T14:57:24;25.20;46.30
52799;DHT22;38667;42.872;74.622;2022-08-04T14:59:50;25.20;49.20
52799;DHT22;38667;42.872;74.622;2022-08-04T15:02:16;25.10;47.30
52799;DHT22;38667;42.872;74.622;2022-08-04T15:04:45;25.10;47.20
52799;DHT22;38667;42.872;74.622;2022-08-04T15:07:12;25.00;49.10
52799;DHT22;38667;42.872;74.622;2022-08-04T15:09:40;24.90;49.90
52799;DHT22;38667;42.872;74.622;2022-08-04T15:12:08;24.80;50.40
52799;DHT22;38667;42.872;74.622;2022-08-04T15:14:35;24.70;50.50
52799;DHT22;38667;42.872;74.622;2022-08-04T15:17:02;24.70;49.40
52799;DHT22;38667;42.872;74.622;2022-08-04T15:19:29;24.70;47.90
52799;DHT22;38667;42.872;74.622;2022-08-04T15:21:58;24.90;47.50
52799;DHT22;38667;42.872;74.622;2022-08-04T15:24:24;25.20;47.00
52799;DHT22;38667;42.872;74.622;2022-08-04T15:26:52;25.20;47.00
52799;DHT22;38667;42.872;74.622;2022-08-04T15:29:26;25.20;46.60
52799;DHT22;38667;42.872;74.622;2022-08-04T15:31:54;25.10;47.30
52799;DHT22;38667;42.872;74.622;2022-08-04T15:34:21;25.00;46.30
52799;DHT22;38667;42.872;74.622;2022-08-04T15:36:51;25.00;46.10
52799;DHT22;38667;42.872;74.622;2022-08-04T15:39:27;25.00;45.00
52799;DHT22;38667;42.872;74.622;2022-08-04T15:42:05;25.10;45.20
52799;DHT22;38667;42.872;74.622;2022-08-04T15:45:11;25.10;44.70
52799;DHT22;38667;42.872;74.622;2022-08-04T15:47:40;25.10;45.40
52799;DHT22;38667;42.872;74.622;2022-08-04T15:50:07;25.20;45.20
52799;DHT22;38667;42.872;74.622;2022-08-04T15:53:02;25.20;45.60
52799;DHT22;38667;42.872;74.622;2022-08-04T15:55:37;25.20;45.60
52799;DHT22;38667;42.872;74.622;2022-08-04T15:58:05;25.10;45.50
52799;DHT22;38667;42.872;74.622;2022-08-04T16:03:42;25.20;45.70
52799;DHT22;38667;42.872;74.622;2022-08-04T16:06:41;25.20;45.70
52799;DHT22;38667;42.872;74.622;2022-08-04T16:09:07;25.10;45.60
52799;DHT22;38667;42.872;74.622;2022-08-04T16:12:55;25.00;45.40
52799;DHT22;38667;42.872;74.622;2022-08-04T16:15:47;24.90;45.10
52799;DHT22;38667;42.872;74.622;2022-08-04T16:18:38;24.80;45.00
52799;DHT22;38667;42.872;74.622;2022-08-04T16:21:06;24.70;45.10
52799;DHT22;38667;42.872;74.622;2022-08-04T16:24:15;24.60;44.70
52799;DHT22;38667;42.872;74.622;2022-08-04T16:26:44;24.60;44.80
52799;DHT22;38667;42.872;74.622;2022-08-04T16:29:29;24.50;44.90
52799;DHT22;38667;42.872;74.622;2022-08-04T16:32:19;24.50;44.80
52799;DHT22;38667;42.872;74.622;2022-08-04T16:34:51;24.40;44.80
52799;DHT22;38667;42.872;74.622;2022-08-04T16:37:18;24.40;44.80
52799;DHT22;38667;42.872;74.622;2022-08-04T16:39:45;24.40;45.00